Time;durP1;ratioP1;P1;durP2;ratioP2;P2;SDS_P1;SDS_P2;PMS_P1;PMS_P2;Temp;Humidity;BMP_temperature;BMP_pressure;BME280_temperature;BME280_humidity;BME280_pressure;Samples;Min_cycle;Max_cycle;Signal;HPM_P1;HPM_P2
2023/01/11 00:01:12;;;;;;;;;0.00;0.00;;;;;8.75;79.81;99245.63;5039426;28;8837;-59
2023/01/11 00:03:40;;;;;;;;;0.50;0.00;;;;;8.77;79.14;99245.50;5039599;28;8825;-59
2023/01/11 00:06:08;;;;;;;;;0.00;0.00;;;;;8.77;79.81;99243.72;5039619;28;8914;-60
2023/01/11 00:08:36;;;;;;;;;0.00;0.00;;;;;8.78;79.81;99250.69;5039088;28;8845;-59
2023/01/11 00:11:03;;;;;;;;;0.00;0.00;;;;;8.79;79.62;99236.47;5039246;28;8824;-59
2023/01/11 00:13:31;;;;;;;;;0.00;0.00;;;;;8.80;79.55;99232.00;5038840;28;8858;-59
2023/01/11 00:15:59;;;;;;;;;0.00;0.00;;;;;8.81;79.57;99250.44;5039239;28;8910;-59
2023/01/11 00:18:27;;;;;;;;;0.00;0.00;;;;;8.84;79.74;99255.50;5038879;28;8832;-59
2023/01/11 00:20:54;;;;;;;;;0.00;0.00;;;;;8.85;79.48;99230.63;5039150;28;8828;-59
2023/01/11 00:23:22;;;;;;;;;0.00;0.00;;;;;8.84;79.31;99231.63;5038606;28;8906;-59
2023/01/11 00:25:50;;;;;;;;;0.00;0.00;;;;;8.85;79.58;99241.25;5038916;28;8844;-59
2023/01/11 00:28:18;;;;;;;;;0.00;0.00;;;;;8.86;79.29;99240.28;5038193;28;8939;-59
2023/01/11 00:30:45;;;;;;;;;0.00;0.00;;;;;8.86;79.16;99240.28;5038602;28;8821;-58
2023/01/11 00:33:13;;;;;;;;;0.00;0.00;;;;;8.87;79.83;99239.31;5038635;28;8813;-59
2023/01/11 00:35:41;;;;;;;;;0.00;0.00;;;;;8.90;79.41;99244.34;5038511;28;8837;-59
2023/01/11 00:38:42;;;;;;;;;0.00;0.00;;;;;8.94;79.50;99240.47;5038492;28;8825;-59
2023/01/11 00:47:55;;;;;;;;;0.00;0.00;;;;;8.97;78.93;99223.47;5038637;28;8832;-59
2023/01/11 00:49:15;;;;;;;;;0.00;0.00;;;;;8.98;79.28;99215.34;5038382;28;8824;-60
2023/01/11 00:51:43;;;;;;;;;0.00;0.00;;;;;8.99;79.24;99224.16;5038429;28;8864;-59
2023/01/11 00:54:10;;;;;;;;;0.00;0.00;;;;;8.99;79.24;99208.22;5038864;28;9605;-59
2023/01/11 00:56:38;;;;;;;;;0.00;0.00;;;;;9.01;78.95;99200.97;5038651;28;8855;-59
2023/01/11 00:59:06;;;;;;;;;0.00;0.00;;;;;9.03;79.19;99189.25;5038206;28;8831;-58
2023/01/11 01:01:34;;;;;;;;;0.50;0.00;;;;;9.02;79.26;99190.22;5038412;28;8882;-59
2023/01/11 01:04:02;;;;;;;;;0.00;0.00;;;;;9.02;79.46;99200.84;5038289;28;8817;-59
2023/01/11 01:06:29;;;;;;;;;0.75;0.00;;;;;9.04;79.65;99198.06;5038260;28;8836;-59
2023/01/11 01:08:57;;;;;;;;;0.00;0.00;;;;;9.04;78.97;99196.22;5038175;28;8824;-58
2023/01/11 01:11:25;;;;;;;;;0.00;0.00;;;;;9.06;79.20;99215.56;5037747;28;8817;-59
2023/01/11 01:16:38;;;;;;;;;0.00;0.00;;;;;9.09;79.33;99196.69;5038350;28;8875;-59
2023/01/11 01:19:06;;;;;;;;;0.00;0.00;;;;;9.09;79.42;99196.69;5038253;28;8821;-60
2023/01/11 01:21:34;;;;;;;;;0.00;0.00;;;;;9.10;79.45;99200.16;5037835;28;8813;-60
2023/01/11 01:24:02;;;;;;;;;0.00;0.00;;;;;9.10;79.67;99195.72;5038031;28;8987;-60
2023/01/11 01:26:29;;;;;;;;;0.00;0.00;;;;;9.12;79.20;99207.03;5037843;28;8840;-59
2023/01/11 01:28:57;;;;;;;;;0.25;0.00;;;;;9.16;79.07;99211.13;5037517;28;9495;-59
2023/01/11 01:31:25;;;;;;;;;0.00;0.00;;;;;9.19;79.35;99216.16;5037281;28;8821;-60
2023/01/11 01:33:52;;;;;;;;;0.00;0.00;;;;;9.24;79.67;99219.28;5037956;28;8959;-59
2023/01/11 01:36:20;;;;;;;;;0.00;0.00;;;;;9.26;79.63;99217.34;5038093;28;8845;-60
2023/01/11 01:38:48;;;;;;;;;0.00;0.00;;;;;9.28;78.90;99202.09;5037719;28;8821;-59
2023/01/11 01:41:16;;;;;;;;;0.00;0.00;;;;;9.30;78.72;99209.94;5036985;28;8821;-59
2023/01/11 01:43:44;;;;;;;;;0.00;0.00;;;;;9.33;79.31;99210.53;5037437;28;8840;-59
2023/01/11 01:46:14;;;;;;;;;0.00;0.00;;;;;9.35;79.16;99221.03;5037601;28;8856;-59
2023/01/11 01:48:42;;;;;;;;;0.00;0.00;;;;;9.35;79.32;99192.63;5037286;28;8881;-59
2023/01/11 01:51:09;;;;;;;;;0.00;0.00;;;;;9.35;79.33;99213.88;5037003;28;9779;-60
2023/01/11 01:53:37;;;;;;;;;0.00;0.00;;;;;9.36;79.39;99198.78;5037165;28;8820;-60
2023/01/11 01:56:05;;;;;;;;;0.00;0.00;;;;;9.36;78.89;99191.69;5037428;28;8855;-59
2023/01/11 01:58:32;;;;;;;;;0.00;0.00;;;;;9.33;78.76;99173.31;5037375;28;8867;-60
2023/01/11 02:01:45;;;;;;;;;0.00;0.00;;;;;9.32;79.24;99187.59;5037323;28;8812;-59
2023/01/11 02:03:49;;;;;;;;;0.00;0.00;;;;;9.30;79.07;99186.88;5036483;28;8860;-57
2023/01/11 02:06:17;;;;;;;;;0.00;0.00;;;;;9.30;79.48;99173.59;5037463;28;8833;-57
2023/01/11 02:08:45;;;;;;;;;0.00;0.00;;;;;9.30;79.72;99176.25;5037142;28;8863;-57
2023/01/11 02:13:54;;;;;;;;;0.00;0.00;;;;;9.26;79.77;99166.84;5036552;28;8863;-59
2023/01/11 02:16:22;;;;;;;;;0.00;0.00;;;;;9.24;79.56;99147.56;5036057;28;8872;-59
2023/01/11 02:18:49;;;;;;;;;0.00;0.00;;;;;9.25;79.49;99154.56;5036880;28;8832;-57
2023/01/11 02:21:17;;;;;;;;;0.00;0.00;;;;;9.26;79.61;99150.91;5036998;28;8817;-58
2023/01/11 02:23:45;;;;;;;;;0.00;0.00;;;;;9.27;79.77;99141.97;5036639;28;8862;-59
2023/01/11 02:26:13;;;;;;;;;0.00;0.00;;;;;9.31;79.67;99147.84;5036546;28;8875;-59
2023/01/11 02:28:40;;;;;;;;;0.00;0.00;;;;;9.36;79.79;99149.16;5036433;28;8836;-59
2023/01/11 02:31:08;;;;;;;;;0.00;0.00;;;;;9.40;79.38;99150.56;5036419;28;8824;-60
2023/01/11 02:33:36;;;;;;;;;0.00;0.00;;;;;9.45;79.72;99143.03;5036797;28;8832;-57
2023/01/11 02:36:04;;;;;;;;;0.00;0.00;;;;;9.50;79.61;99153.25;5036551;28;8836;-59
2023/01/11 02:38:32;;;;;;;;;0.00;0.00;;;;;9.52;79.90;99144.19;5036041;28;8809;-60
2023/01/11 02:40:59;;;;;;;;;0.00;0.00;;;;;9.54;79.56;99131.59;5036393;28;8821;-60
2023/01/11 02:46:13;;;;;;;;;0.00;0.00;;;;;9.60;79.35;99133.72;5036844;28;8836;-59
2023/01/11 02:48:41;;;;;;;;;0.00;0.00;;;;;9.63;79.43;99132.63;5036572;28;8971;-60
2023/01/11 02:51:08;;;;;;;;;0.00;0.00;;;;;9.65;79.65;99131.47;5036376;28;8825;-60
2023/01/11 02:53:36;;;;;;;;;0.00;0.00;;;;;9.67;79.66;99140.19;5036411;28;8832;-59
2023/01/11 02:56:04;;;;;;;;;0.00;0.00;;;;;9.69;79.57;99138.22;5036468;28;8832;-59
2023/01/11 02:58:32;;;;;;;;;0.75;0.00;;;;;9.69;79.86;99129.38;5035857;28;8816;-60
2023/01/11 03:00:59;;;;;;;;;0.00;0.00;;;;;9.68;79.43;99125.91;5036017;28;9502;-60
2023/01/11 03:03:28;;;;;;;;;0.00;0.00;;;;;9.65;79.56;99122.69;5036318;28;8837;-60
2023/01/11 03:05:56;;;;;;;;;0.00;0.00;;;;;9.59;79.98;99118.75;5036277;28;8841;-60
2023/01/11 03:08:23;;;;;;;;;0.00;0.00;;;;;9.56;80.11;99116.34;5036081;28;8851;-59
2023/01/11 03:10:51;;;;;;;;;0.00;0.00;;;;;9.57;80.11;99119.84;5016756;28;8827;-60
2023/01/11 03:13:18;;;;;;;;;0.00;0.00;;;;;9.58;80.27;99126.84;5016332;28;8854;-60
2023/01/11 03:15:46;;;;;;;;;0.00;0.00;;;;;9.59;80.17;99108.13;5015516;28;8834;-59
2023/01/11 03:18:13;;;;;;;;;0.00;0.00;;;;;9.60;80.27;99104.47;5016510;28;8869;-59
2023/01/11 03:20:41;;;;;;;;;0.00;0.00;;;;;9.63;80.21;99106.03;5034237;28;8831;-60
2023/01/11 03:23:09;;;;;;;;;0.00;0.00;;;;;9.65;80.56;99107.53;5035977;28;8839;-60
2023/01/11 03:25:37;;;;;;;;;0.00;0.00;;;;;9.67;80.23;99102.09;5035850;28;8859;-60
2023/01/11 03:28:06;;;;;;;;;0.00;0.00;;;;;9.70;80.82;99108.00;5035884;28;8853;-57
2023/01/11 03:30:33;;;;;;;;;0.00;0.00;;;;;9.72;80.47;99095.38;5035621;28;8809;-59
2023/01/11 03:33:01;;;;;;;;;0.00;0.00;;;;;9.74;80.33;99105.91;5035780;28;8828;-59
2023/01/11 03:35:29;;;;;;;;;0.00;0.00;;;;;9.76;80.58;99099.47;5036110;28;8821;-60
2023/01/11 03:37:56;;;;;;;;;0.00;0.00;;;;;9.79;80.66;99093.88;5035643;28;8844;-59
2023/01/11 03:40:24;;;;;;;;;0.00;0.00;;;;;9.80;80.74;99098.19;5035377;28;8817;-59
2023/01/11 03:45:38;;;;;;;;;0.00;0.00;;;;;9.82;80.77;99087.44;5035985;28;8828;-59
2023/01/11 03:48:05;;;;;;;;;0.00;0.00;;;;;9.82;80.69;99098.94;5035995;28;8852;-59
2023/01/11 03:50:33;;;;;;;;;0.00;0.00;;;;;9.83;80.77;99087.31;5035591;28;8860;-59
2023/01/11 03:53:01;;;;;;;;;0.00;0.00;;;;;9.86;80.61;99102.16;5035739;28;8827;-58
2023/01/11 03:55:29;;;;;;;;;0.00;0.00;;;;;9.89;81.29;99107.19;5035687;28;9530;-59
2023/01/11 03:57:56;;;;;;;;;0.50;0.50;;;;;9.88;80.75;99085.06;5035726;28;8925;-59
2023/01/11 04:00:24;;;;;;;;;0.00;0.00;;;;;9.88;80.48;99101.00;5035128;28;8840;-59
2023/01/11 04:02:53;;;;;;;;;0.00;0.00;;;;;9.88;80.65;99087.72;5035516;28;8867;-58
2023/01/11 04:05:20;;;;;;;;;0.00;0.00;;;;;9.90;81.20;99095.56;5034560;28;8847;-59
2023/01/11 04:07:49;;;;;;;;;0.00;0.00;;;;;9.90;80.86;99098.22;5034257;28;8867;-58
2023/01/11 04:10:16;;;;;;;;;0.00;0.00;;;;;9.88;81.00;99090.38;5033959;28;8902;-59
2023/01/11 04:12:44;;;;;;;;;0.00;0.00;;;;;9.86;81.19;99080.88;5034269;28;8848;-59
2023/01/11 04:15:12;;;;;;;;;0.00;0.00;;;;;9.79;81.38;99080.56;5034406;28;8840;-60
2023/01/11 04:17:39;;;;;;;;;0.00;0.00;;;;;9.72;81.72;99087.41;5034274;28;8841;-59
2023/01/11 04:20:07;;;;;;;;;0.00;0.00;;;;;9.66;81.98;99090.63;5034601;28;8808;-59
2023/01/11 04:22:35;;;;;;;;;0.00;0.00;;;;;9.60;82.09;99072.59;5034884;28;8824;-60
2023/01/11 04:25:02;;;;;;;;;0.00;0.00;;;;;9.53;82.16;99074.09;5035246;28;8880;-58
2023/01/11 04:27:30;;;;;;;;;0.00;0.00;;;;;9.50;82.54;99082.34;5036513;28;8832;-59
2023/01/11 04:29:58;;;;;;;;;0.00;0.00;;;;;9.46;82.95;99075.63;5038781;28;8847;-58
2023/01/11 04:32:26;;;;;;;;;0.00;0.00;;;;;9.42;83.18;99070.72;5038769;28;8833;-59
2023/01/11 04:34:53;;;;;;;;;0.00;0.00;;;;;9.40;83.13;99073.50;5039037;28;8861;-58
2023/01/11 04:37:21;;;;;;;;;0.00;0.00;;;;;9.38;83.40;99079.94;5038839;28;8829;-59
2023/01/11 04:39:49;;;;;;;;;0.00;0.00;;;;;9.37;83.67;99070.28;5038608;28;8812;-61
2023/01/11 04:42:18;;;;;;;;;0.00;0.00;;;;;9.36;83.87;99077.44;5038918;28;8860;-60
2023/01/11 04:44:46;;;;;;;;;0.00;0.00;;;;;9.34;84.08;99076.69;5038408;28;8829;-57
2023/01/11 04:47:14;;;;;;;;;0.00;0.00;;;;;9.34;83.85;99081.19;5038360;28;8877;-60
2023/01/11 04:49:42;;;;;;;;;0.00;0.00;;;;;9.34;84.03;99079.34;5018444;28;8932;-59
2023/01/11 04:52:11;;;;;;;;;0.00;0.00;;;;;9.33;83.99;99069.72;5025062;28;9462;-59
2023/01/11 04:54:39;;;;;;;;;0.00;0.00;;;;;9.33;84.68;99067.06;5037399;28;8816;-59
2023/01/11 04:57:07;;;;;;;;;0.00;0.00;;;;;9.34;84.29;99068.72;5038173;28;8828;-58
2023/01/11 04:59:35;;;;;;;;;0.00;0.00;;;;;9.34;84.55;99047.47;5037739;28;8848;-59
2023/01/11 05:02:02;;;;;;;;;0.00;0.00;;;;;9.36;84.28;99076.56;5037971;28;8828;-57
2023/01/11 05:04:30;;;;;;;;;0.00;0.00;;;;;9.37;84.25;99062.31;5038072;28;8859;-59
2023/01/11 05:06:58;;;;;;;;;0.00;0.00;;;;;9.39;84.86;99071.84;5038428;28;8905;-59
2023/01/11 05:09:25;;;;;;;;;0.00;0.00;;;;;9.41;84.61;99055.75;5037370;28;8832;-59
2023/01/11 05:11:53;;;;;;;;;0.00;0.00;;;;;9.42;84.61;99060.09;5038252;28;8836;-59
2023/01/11 05:14:22;;;;;;;;;0.00;0.00;;;;;9.43;84.54;99062.59;5038625;28;8914;-59
2023/01/11 05:16:49;;;;;;;;;0.00;0.00;;;;;9.46;84.69;99067.66;5037444;28;8844;-58
2023/01/11 05:19:17;;;;;;;;;0.00;0.00;;;;;9.47;84.84;99047.22;5037439;28;8844;-58
2023/01/11 05:21:45;;;;;;;;;0.00;0.00;;;;;9.49;85.02;99051.44;5037193;28;8852;-58
2023/01/11 05:24:13;;;;;;;;;0.00;0.00;;;;;9.51;84.59;99046.84;5037804;28;8843;-59
2023/01/11 05:26:40;;;;;;;;;0.00;0.00;;;;;9.53;84.85;99046.69;5037226;28;8828;-58
2023/01/11 05:29:08;;;;;;;;;0.00;0.00;;;;;9.56;85.10;99049.09;5036709;28;8812;-59
2023/01/11 05:31:35;;;;;;;;;0.00;0.00;;;;;9.58;85.31;99073.69;5037616;28;8916;-58
2023/01/11 05:34:05;;;;;;;;;0.00;0.00;;;;;9.61;85.26;99054.81;5037435;28;8836;-59
2023/01/11 05:36:33;;;;;;;;;0.00;0.00;;;;;9.62;85.73;99041.38;5037507;28;8836;-59
2023/01/11 05:39:01;;;;;;;;;0.00;0.00;;;;;9.65;85.57;99053.56;5035890;28;8827;-59
2023/01/11 05:41:29;;;;;;;;;0.00;0.00;;;;;9.67;85.22;99055.13;5036950;28;8857;-60
2023/01/11 05:46:42;;;;;;;;;0.00;0.00;;;;;9.73;85.10;99043.91;5036766;28;8872;-59
2023/01/11 05:49:09;;;;;;;;;0.00;0.00;;;;;9.74;85.32;99056.25;5036351;28;8816;-59
2023/01/11 05:51:38;;;;;;;;;0.00;0.00;;;;;9.76;85.88;99053.41;5036613;28;8917;-59
2023/01/11 05:54:05;;;;;;;;;0.00;0.00;;;;;9.77;85.48;99040.00;5036897;28;8842;-59
2023/01/11 05:56:33;;;;;;;;;0.00;0.00;;;;;9.79;85.57;99040.69;5036976;28;8859;-59
2023/01/11 05:59:02;;;;;;;;;0.00;0.00;;;;;9.81;85.26;99032.59;5036229;28;8824;-59
2023/01/11 06:01:30;;;;;;;;;0.00;0.00;;;;;9.82;85.61;99037.78;5036942;28;8833;-59
2023/01/11 06:03:58;;;;;;;;;0.00;0.00;;;;;9.84;86.34;99034.94;5036713;28;8844;-59
2023/01/11 06:06:25;;;;;;;;;0.00;0.00;;;;;9.85;86.17;99034.81;5036066;28;8844;-59
2023/01/11 06:08:53;;;;;;;;;0.00;0.00;;;;;9.87;86.01;99037.34;5034160;28;8886;-57
2023/01/11 06:11:22;;;;;;;;;0.00;0.00;;;;;9.88;85.80;99047.81;5034506;28;8840;-58
2023/01/11 06:13:49;;;;;;;;;0.00;0.00;;;;;9.90;86.20;99040.56;5035130;28;8832;-57
2023/01/11 06:16:17;;;;;;;;;0.00;0.00;;;;;9.92;86.52;99030.63;5034955;28;8863;-59
2023/01/11 06:18:45;;;;;;;;;0.00;0.00;;;;;9.94;86.53;99033.16;5035528;28;8856;-59
2023/01/11 06:21:12;;;;;;;;;0.00;0.00;;;;;9.96;86.17;99034.66;5035389;28;8855;-58
2023/01/11 06:23:40;;;;;;;;;0.00;0.00;;;;;9.98;86.49;99032.72;5035218;28;8840;-59
2023/01/11 06:26:08;;;;;;;;;0.00;0.00;;;;;10.00;86.32;99049.38;5034529;28;8836;-60
2023/01/11 06:28:36;;;;;;;;;0.00;0.00;;;;;10.01;86.14;99040.41;5034788;28;8957;-59
2023/01/11 06:31:03;;;;;;;;;0.00;0.00;;;;;10.04;86.44;99045.50;5033734;28;8852;-59
2023/01/11 06:33:31;;;;;;;;;0.00;0.00;;;;;10.05;86.08;99036.53;5034522;28;8848;-57
2023/01/11 06:35:59;;;;;;;;;0.00;0.00;;;;;10.07;86.31;99055.84;5034537;28;8863;-59
2023/01/11 06:38:27;;;;;;;;;0.00;0.00;;;;;10.07;86.64;99058.50;5034170;28;8852;-59
2023/01/11 06:40:55;;;;;;;;;0.00;0.00;;;;;10.09;86.39;99056.53;5034202;28;8883;-58
2023/01/11 06:43:23;;;;;;;;;0.00;0.00;;;;;10.10;86.54;99044.09;5034307;28;8844;-58
2023/01/11 06:45:51;;;;;;;;;0.00;0.00;;;;;10.12;86.84;99055.44;5033564;28;8848;-58
2023/01/11 06:48:19;;;;;;;;;0.00;0.00;;;;;10.11;86.52;99041.28;5033497;28;8853;-58
2023/01/11 06:50:46;;;;;;;;;0.00;0.00;;;;;10.12;86.34;99045.63;5033048;28;8911;-59
2023/01/11 06:53:14;;;;;;;;;0.00;0.00;;;;;10.14;86.40;99043.66;5033241;28;9784;-58
2023/01/11 06:55:42;;;;;;;;;0.00;0.00;;;;;10.15;86.36;99034.69;5033481;28;8856;-57
2023/01/11 06:58:10;;;;;;;;;0.00;0.00;;;;;10.16;86.41;99039.03;5034078;28;8820;-59
2023/01/11 07:00:38;;;;;;;;;0.00;0.00;;;;;10.17;86.72;99040.72;5034025;28;8859;-59
2023/01/11 07:03:06;;;;;;;;;0.00;0.00;;;;;10.20;86.49;99045.78;5033667;28;9741;-59
2023/01/11 07:05:34;;;;;;;;;0.00;0.00;;;;;10.21;86.02;99044.78;5033700;28;8856;-57
2023/01/11 07:08:02;;;;;;;;;0.00;0.00;;;;;10.23;86.31;99047.31;5033158;28;9737;-59
2023/01/11 07:10:30;;;;;;;;;0.00;0.00;;;;;10.24;86.30;99043.66;5032271;28;8832;-57
2023/01/11 07:12:58;;;;;;;;;0.00;0.00;;;;;10.25;85.88;99054.16;5033007;28;8973;-58
2023/01/11 07:15:25;;;;;;;;;0.00;0.00;;;;;10.27;86.37;99038.91;5032858;28;8883;-59
2023/01/11 07:17:54;;;;;;;;;0.00;0.00;;;;;10.30;86.26;99040.41;5032774;28;8849;-57
2023/01/11 07:20:22;;;;;;;;;0.00;0.00;;;;;10.30;86.33;99049.25;5033217;28;8850;-58
2023/01/11 07:22:49;;;;;;;;;0.00;0.00;;;;;10.31;86.21;99048.25;5034140;28;8854;-58
2023/01/11 07:25:17;;;;;;;;;0.00;0.00;;;;;10.33;86.12;99050.78;5034162;28;8848;-59
2023/01/11 07:27:45;;;;;;;;;0.00;0.00;;;;;10.33;86.94;99053.44;5034341;28;8832;-59
2023/01/11 07:30:13;;;;;;;;;0.00;0.00;;;;;10.35;86.60;99064.78;5034265;28;8871;-57
2023/01/11 07:32:41;;;;;;;;;0.00;0.00;;;;;10.36;86.34;99069.97;5033735;28;8847;-58
2023/01/11 07:35:09;;;;;;;;;0.00;0.00;;;;;10.37;86.41;99074.31;5034022;28;8909;-58
2023/01/11 07:37:37;;;;;;;;;0.00;0.00;;;;;10.39;86.05;99080.31;5034232;28;8855;-58
2023/01/11 07:40:05;;;;;;;;;0.00;0.00;;;;;10.41;85.90;99088.19;5034293;28;8851;-57
2023/01/11 07:45:18;;;;;;;;;0.00;0.00;;;;;10.42;85.64;99088.03;5034448;28;8841;-59
2023/01/11 07:47:46;;;;;;;;;0.00;0.00;;;;;10.44;86.17;99082.56;5034336;28;8864;-59
2023/01/11 07:50:14;;;;;;;;;0.00;0.00;;;;;10.45;85.96;99095.72;5032901;28;8836;-59
2023/01/11 07:52:41;;;;;;;;;0.00;0.00;;;;;10.45;86.06;99094.88;5033061;28;8832;-59
2023/01/11 07:55:09;;;;;;;;;0.00;0.00;;;;;10.45;86.10;99093.06;5032684;28;8848;-59
2023/01/11 07:57:37;;;;;;;;;0.00;0.00;;;;;10.47;85.81;99098.25;5033197;28;8946;-58
2023/01/11 08:00:05;;;;;;;;;0.00;0.00;;;;;10.47;85.67;99106.25;5033539;28;8851;-58
2023/01/11 08:02:33;;;;;;;;;0.00;0.00;;;;;10.47;86.10;99104.41;5035073;28;8856;-57
2023/01/11 08:05:01;;;;;;;;;0.00;0.00;;;;;10.50;85.68;99109.47;5037512;28;8858;-57
2023/01/11 08:07:30;;;;;;;;;0.00;0.00;;;;;10.51;85.64;99113.81;5037218;28;8922;-57
2023/01/11 08:09:58;;;;;;;;;0.00;0.00;;;;;10.52;85.81;99119.94;5038231;28;9644;-58
2023/01/11 08:15:12;;;;;;;;;0.00;0.00;;;;;10.55;85.62;99128.50;5037638;28;8881;-58
2023/01/11 08:17:40;;;;;;;;;0.00;0.00;;;;;10.55;85.90;99136.47;5037996;28;8852;-57
2023/01/11 08:20:09;;;;;;;;;0.00;0.00;;;;;10.56;86.10;99135.50;5038162;28;8868;-59
2023/01/11 08:22:37;;;;;;;;;0.00;0.00;;;;;10.58;85.65;99133.56;5037680;28;8853;-58
2023/01/11 08:25:04;;;;;;;;;0.00;0.00;;;;;10.59;85.45;99143.22;5037536;28;8848;-57
2023/01/11 08:27:32;;;;;;;;;0.75;0.00;;;;;10.61;85.78;99127.94;5036832;28;8851;-58
2023/01/11 08:30:00;;;;;;;;;0.00;0.00;;;;;10.63;85.58;99136.59;5037611;28;8914;-57
2023/01/11 08:32:28;;;;;;;;;0.00;0.00;;;;;10.65;85.49;99128.47;5037300;28;8853;-59
2023/01/11 08:34:56;;;;;;;;;0.00;0.00;;;;;10.67;85.52;99126.50;5037300;28;8848;-58
2023/01/11 08:37:24;;;;;;;;;0.25;0.00;;;;;10.69;85.99;99109.41;5037069;28;8858;-59
2023/01/11 08:39:54;;;;;;;;;0.50;0.00;;;;;10.70;86.51;99100.44;5036053;28;9663;-57
2023/01/11 08:42:22;;;;;;;;;1.00;0.00;;;;;10.71;85.89;99096.78;5036172;28;8922;-57
2023/01/11 08:44:50;;;;;;;;;0.00;0.00;;;;;10.73;86.59;99109.97;5036750;28;8859;-59
2023/01/11 08:47:18;;;;;;;;;2.50;0.75;;;;;10.73;86.23;99113.50;5036364;28;8875;-57
2023/01/11 08:49:46;;;;;;;;;1.00;1.00;;;;;10.76;86.68;99131.00;5036060;28;8836;-58
2023/01/11 08:52:14;;;;;;;;;0.00;0.00;;;;;10.77;86.76;99138.00;5036123;28;8980;-57
2023/01/11 08:54:42;;;;;;;;;0.00;0.00;;;;;10.79;86.31;99141.34;5036010;28;8844;-57
2023/01/11 08:57:10;;;;;;;;;0.00;0.00;;;;;10.80;86.03;99138.56;5036695;28;8906;-58
2023/01/11 08:59:38;;;;;;;;;1.50;1.50;;;;;10.84;86.19;99147.09;5036007;28;8832;-57
2023/01/11 09:02:06;;;;;;;;;0.00;0.00;;;;;10.86;85.71;99150.47;5036685;28;9606;-58
2023/01/11 09:04:34;;;;;;;;;0.00;0.00;;;;;10.87;85.87;99150.31;5035708;28;8922;-58
2023/01/11 09:07:02;;;;;;;;;0.00;0.00;;;;;10.90;85.49;99146.50;5035756;28;8832;-58
2023/01/11 09:09:30;;;;;;;;;0.75;0.75;;;;;10.92;85.57;99156.03;5036198;28;8836;-56
2023/01/11 09:12:01;;;;;;;;;0.00;0.00;;;;;10.93;86.06;99152.38;5036437;28;8852;-58
2023/01/11 09:14:32;;;;;;;;;2.00;1.00;;;;;10.95;85.90;99154.91;5036022;28;8840;-58
2023/01/11 09:17:00;;;;;;;;;1.00;1.00;;;;;10.96;85.64;99157.44;5036227;28;9157;-58
2023/01/11 09:19:28;;;;;;;;;0.00;0.00;;;;;10.99;85.43;99165.16;5036059;28;8825;-59
2023/01/11 09:21:59;;;;;;;;;3.25;1.00;;;;;11.02;85.62;99170.19;5036383;28;8882;-58
2023/01/11 09:24:27;;;;;;;;;0.50;0.50;;;;;11.06;85.63;99170.75;5034747;28;9375;-57
2023/01/11 09:26:55;;;;;;;;;0.75;0.75;;;;;11.09;85.24;99173.94;5036141;28;8848;-59
2023/01/11 09:29:23;;;;;;;;;1.00;1.00;;;;;11.11;85.23;99176.47;5035495;28;9544;-58
2023/01/11 09:31:51;;;;;;;;;2.00;0.75;;;;;11.14;85.35;99190.34;5036194;28;8890;-58
2023/01/11 09:34:21;;;;;;;;;1.00;1.00;;;;;11.15;84.91;99189.34;5033957;28;8848;-59
2023/01/11 09:36:49;;;;;;;;;2.00;2.00;;;;;11.14;85.77;99195.69;5035804;28;8963;-59
2023/01/11 09:39:21;;;;;;;;;3.00;3.00;;;;;11.14;85.55;99197.53;5034823;28;8844;-59
2023/01/11 09:41:49;;;;;;;;;3.00;3.00;;;;;11.10;85.42;99206.78;5034714;28;8983;-59
2023/01/11 09:44:20;;;;;;;;;3.00;3.00;;;;;11.08;85.70;99222.88;5035480;28;9498;-59
2023/01/11 09:46:49;;;;;;;;;4.25;1.50;;;;;11.04;86.06;99221.50;5034973;28;8841;-59
2023/01/11 09:49:19;;;;;;;;;3.00;3.00;;;;;11.01;85.97;99234.28;5035530;28;8860;-59
2023/01/11 09:51:46;;;;;;;;;5.00;4.50;;;;;10.97;85.68;99236.38;5036057;28;8840;-59
2023/01/11 09:54:14;;;;;;;;;2.50;2.50;;;;;10.94;85.87;99241.97;5035505;28;8836;-59
2023/01/11 09:56:45;;;;;;;;;1.00;1.00;;;;;10.91;85.52;99249.44;5035954;28;8844;-59
2023/01/11 09:59:16;;;;;;;;;5.25;4.50;;;;;10.88;86.12;99258.53;5035043;28;9541;-59
2023/01/11 10:01:44;;;;;;;;;3.00;2.00;;;;;10.84;85.77;99251.81;5035336;28;8820;-59
2023/01/11 10:04:15;;;;;;;;;4.00;4.00;;;;;10.82;85.48;99244.94;5035379;28;8836;-59
2023/01/11 10:06:43;;;;;;;;;4.00;3.50;;;;;10.79;85.96;99243.41;5034946;28;8929;-59
2023/01/11 10:09:11;;;;;;;;;3.00;2.00;;;;;10.76;85.74;99242.84;5034851;28;8848;-57
2023/01/11 10:12:01;;;;;;;;;4.50;4.00;;;;;10.73;86.00;99248.44;5034354;28;8864;-60
2023/01/11 10:14:49;;;;;;;;;3.75;3.25;;;;;10.69;85.84;99258.53;5034235;28;8926;-59
2023/01/11 10:17:40;;;;;;;;;4.00;4.00;;;;;10.69;85.91;99257.69;5033347;28;8880;-59
2023/01/11 10:20:33;;;;;;;;;4.00;4.00;;;;;10.69;86.01;99279.00;5033789;28;8935;-59
2023/01/11 10:23:03;;;;;;;;;2.75;2.75;;;;;10.66;86.00;99274.78;5033070;28;8848;-59
2023/01/11 10:25:40;;;;;;;;;6.50;6.50;;;;;10.66;86.02;99273.94;5031981;28;8836;-59
2023/01/11 10:28:08;;;;;;;;;8.00;8.00;;;;;10.68;86.08;99282.63;5031670;28;8844;-59
2023/01/11 10:30:48;;;;;;;;;8.50;6.50;;;;;10.69;85.75;99287.00;5032188;28;9541;-57
2023/01/11 10:33:28;;;;;;;;;4.00;4.00;;;;;10.69;86.09;99273.69;5031283;28;8840;-57
2023/01/11 10:36:13;;;;;;;;;6.00;5.50;;;;;10.70;86.15;99268.19;5030584;28;8934;-58
2023/01/11 10:38:56;;;;;;;;;6.00;6.00;;;;;10.69;85.50;99268.34;5030207;28;8844;-59
2023/01/11 10:41:32;;;;;;;;;6.25;5.75;;;;;10.69;85.53;99271.84;5031033;28;8854;-58
2023/01/11 10:44:01;;;;;;;;;6.50;6.50;;;;;10.69;85.92;99260.38;5030793;28;8841;-59
2023/01/11 10:46:30;;;;;;;;;8.50;6.00;;;;;10.70;85.67;99265.53;5033364;28;8837;-59
2023/01/11 10:48:58;;;;;;;;;5.00;5.00;;;;;10.70;85.50;99276.19;5032343;28;8868;-58
2023/01/11 10:51:26;;;;;;;;;7.00;6.00;;;;;10.69;85.30;99279.81;5031995;28;8970;-59
2023/01/11 10:53:54;;;;;;;;;4.00;3.75;;;;;10.71;85.09;99295.66;5032825;28;9554;-58
2023/01/11 10:56:24;;;;;;;;;6.00;5.50;;;;;10.71;85.56;99296.50;5032855;28;9612;-59
2023/01/11 10:58:53;;;;;;;;;7.50;5.00;;;;;10.70;85.05;99301.97;5032212;28;8832;-59
2023/01/11 11:01:25;;;;;;;;;4.00;4.00;;;;;10.70;85.43;99301.97;5033353;28;8844;-58
2023/01/11 11:03:53;;;;;;;;;3.00;3.00;;;;;10.70;85.12;99300.16;5033863;28;8852;-58
2023/01/11 11:06:22;;;;;;;;;4.00;3.00;;;;;10.70;85.03;99301.97;5034335;28;8840;-57
2023/01/11 11:08:50;;;;;;;;;1.00;1.00;;;;;10.68;85.55;99299.44;5033608;28;8867;-58
2023/01/11 11:11:18;;;;;;;;;4.00;4.00;;;;;10.69;85.02;99287.81;5033038;28;8853;-57
2023/01/11 11:13:46;;;;;;;;;1.00;1.00;;;;;10.70;84.71;99304.66;5034215;28;8845;-57
2023/01/11 11:16:14;;;;;;;;;1.50;1.00;;;;;10.69;84.85;99305.63;5034392;28;8828;-59
2023/01/11 11:18:42;;;;;;;;;4.50;3.25;;;;;10.69;84.53;99305.63;5034305;28;8879;-58
2023/01/11 11:21:10;;;;;;;;;2.50;2.50;;;;;10.70;84.60;99288.66;5033844;28;9553;-60
2023/01/11 11:23:39;;;;;;;;;1.00;1.00;;;;;10.71;84.85;99295.66;5034699;28;8851;-59
2023/01/11 11:26:07;;;;;;;;;4.00;3.50;;;;;10.71;84.94;99293.84;5034492;28;8840;-58
2023/01/11 11:28:35;;;;;;;;;3.00;1.00;;;;;10.71;84.99;99301.81;5034427;28;9491;-57
2023/01/11 11:31:03;;;;;;;;;3.00;3.00;;;;;10.69;84.73;99309.13;5033956;28;8856;-59
2023/01/11 11:33:31;;;;;;;;;7.00;4.50;;;;;10.66;84.11;99320.06;5033739;28;9526;-57
2023/01/11 11:36:00;;;;;;;;;5.50;4.00;;;;;10.63;84.91;99312.31;5033597;28;8891;-59
2023/01/11 11:38:29;;;;;;;;;2.50;2.50;;;;;10.63;84.53;99322.97;5033292;28;8880;-59
2023/01/11 11:40:57;;;;;;;;;2.50;2.00;;;;;10.63;84.78;99325.63;5031944;28;8844;-59
2023/01/11 11:43:25;;;;;;;;;2.00;2.00;;;;;10.64;84.93;99330.00;5032428;28;8841;-59
2023/01/11 11:45:53;;;;;;;;;1.50;1.00;;;;;10.64;84.42;99346.00;5032404;28;8937;-60
2023/01/11 11:48:22;;;;;;;;;2.50;1.00;;;;;10.60;84.34;99349.88;5032435;28;9542;-58
2023/01/11 11:50:50;;;;;;;;;1.75;0.75;;;;;10.57;84.52;99347.50;5031932;28;8852;-60
2023/01/11 11:53:18;;;;;;;;;5.50;3.75;;;;;10.56;84.61;99351.13;5031625;28;8836;-59
2023/01/11 11:55:46;;;;;;;;;3.25;3.00;;;;;10.60;84.67;99349.88;5030165;28;8840;-57
2023/01/11 11:58:14;;;;;;;;;3.00;3.00;;;;;10.69;84.19;99338.41;5029626;28;8840;-60
2023/01/11 12:00:43;;;;;;;;;3.00;3.00;;;;;10.81;84.03;99337.31;5030548;28;8852;-58
2023/01/11 12:03:11;;;;;;;;;4.00;2.00;;;;;11.20;83.37;99349.66;5031241;28;8836;-59
2023/01/11 12:05:39;;;;;;;;;2.00;2.00;;;;;11.64;82.47;99346.44;5030723;28;8832;-59
2023/01/11 12:08:07;;;;;;;;;2.00;2.00;;;;;11.80;82.02;99337.81;5031225;28;8840;-57
2023/01/11 12:10:35;;;;;;;;;3.00;3.00;;;;;12.05;81.08;99332.69;5031147;28;8926;-59
2023/01/11 12:13:04;;;;;;;;;4.00;4.00;;;;;12.33;79.88;99323.72;5032144;28;8836;-59
2023/01/11 12:15:32;;;;;;;;;3.00;3.00;;;;;12.50;79.86;99322.91;5032514;28;8880;-60
2023/01/11 12:18:00;;;;;;;;;1.00;1.00;;;;;12.67;79.61;99327.44;5033203;28;9866;-58